createdAt,value
2018-10-19T00:00:44.765Z,9.00
2018-10-19T00:03:13.046Z,9.00
2018-10-19T00:05:41.217Z,8.90
2018-10-19T00:08:09.461Z,8.80
2018-10-19T00:10:37.636Z,8.90
2018-10-19T00:13:05.878Z,8.90
2018-10-19T00:15:34.057Z,9.00
2018-10-19T00:18:02.301Z,8.90
2018-10-19T00:20:30.482Z,8.80
2018-10-19T00:22:58.692Z,8.70
2018-10-19T00:25:26.883Z,8.60
2018-10-19T00:27:55.174Z,8.60
2018-10-19T00:30:23.418Z,8.60
2018-10-19T00:32:51.638Z,8.60
2018-10-19T00:35:19.790Z,8.70
2018-10-19T00:37:48.017Z,8.70
2018-10-19T00:40:16.245Z,8.70
2018-10-19T00:42:44.452Z,8.80
2018-10-19T00:45:12.758Z,8.90
2018-10-19T00:47:40.889Z,8.90
2018-10-19T00:50:09.182Z,8.90
2018-10-19T00:52:37.409Z,8.80
2018-10-19T00:55:06.280Z,8.70
2018-10-19T00:57:34.500Z,8.70
2018-10-19T01:00:02.743Z,8.70
2018-10-19T01:02:30.983Z,8.70
2018-10-19T01:04:59.154Z,8.70
2018-10-19T01:07:27.361Z,8.70
2018-10-19T01:09:55.581Z,8.70
2018-10-19T01:12:23.785Z,8.70
2018-10-19T01:14:52.007Z,8.70
2018-10-19T01:17:20.278Z,8.60
2018-10-19T01:19:48.490Z,8.60
2018-10-19T01:22:16.893Z,8.50
2018-10-19T01:24:45.103Z,8.50
2018-10-19T01:27:13.370Z,8.50
2018-10-19T01:29:41.561Z,8.60
2018-10-19T01:32:09.709Z,8.60
2018-10-19T01:34:37.940Z,8.50
2018-10-19T01:37:06.175Z,8.50
2018-10-19T01:39:34.365Z,8.60
2018-10-19T01:42:02.581Z,8.60
2018-10-19T01:44:32.097Z,8.40
2018-10-19T01:47:00.381Z,8.30
2018-10-19T01:49:28.565Z,8.30
2018-10-19T01:51:56.779Z,8.20
2018-10-19T01:54:24.989Z,8.20
2018-10-19T01:56:53.215Z,8.10
2018-10-19T01:59:21.409Z,8.10
2018-10-19T02:01:49.573Z,8.10
2018-10-19T02:04:17.777Z,8.10
2018-10-19T02:06:45.996Z,8.00
2018-10-19T02:09:14.174Z,8.00
2018-10-19T02:11:42.409Z,8.10
2018-10-19T02:14:10.613Z,8.10
2018-10-19T02:16:38.840Z,8.10
2018-10-19T02:19:07.013Z,8.10
2018-10-19T02:21:35.213Z,8.10
2018-10-19T02:24:03.502Z,8.00
2018-10-19T02:26:31.673Z,8.00
2018-10-19T02:28:59.939Z,8.00
2018-10-19T02:31:28.175Z,8.00
2018-10-19T02:33:56.385Z,8.00
2018-10-19T02:36:24.634Z,8.00
2018-10-19T02:38:52.836Z,8.00
2018-10-19T02:41:21.058Z,7.90
2018-10-19T02:43:49.226Z,7.90
2018-10-19T02:46:17.443Z,7.80
2018-10-19T02:48:45.650Z,7.60
2018-10-19T02:51:13.875Z,7.50
2018-10-19T02:53:42.105Z,7.50
2018-10-19T02:56:10.285Z,7.60
2018-10-19T02:58:38.501Z,7.70
2018-10-19T03:01:06.719Z,7.70
2018-10-19T03:03:34.901Z,7.70
2018-10-19T03:06:03.110Z,7.70
2018-10-19T03:08:31.305Z,7.60
2018-10-19T03:10:59.596Z,7.60
2018-10-19T03:13:27.789Z,7.50
2018-10-19T03:15:55.965Z,7.60
2018-10-19T03:18:24.181Z,7.50
2018-10-19T03:20:52.377Z,7.40
2018-10-19T03:23:20.603Z,7.30
2018-10-19T03:25:48.780Z,7.20
2018-10-19T03:28:16.997Z,7.20
2018-10-19T03:30:45.316Z,7.10
2018-10-19T03:33:13.501Z,7.10
2018-10-19T03:35:41.732Z,7.20
2018-10-19T03:38:09.901Z,7.30
2018-10-19T03:40:38.126Z,7.30
2018-10-19T03:43:06.353Z,7.40
2018-10-19T03:45:35.089Z,7.30
2018-10-19T03:48:03.363Z,7.10
2018-10-19T03:50:31.545Z,7.10
2018-10-19T03:52:59.804Z,7.10
2018-10-19T03:55:27.981Z,7.10
2018-10-19T03:57:56.190Z,7.10
2018-10-19T04:00:24.357Z,7.20
2018-10-19T04:02:52.601Z,7.30
2018-10-19T04:05:22.050Z,7.30
2018-10-19T04:07:50.237Z,7.30
2018-10-19T04:10:18.449Z,7.30
2018-10-19T04:12:46.649Z,7.40
2018-10-19T04:15:15.053Z,7.30
2018-10-19T04:17:43.066Z,7.30
2018-10-19T04:20:11.282Z,7.30
2018-10-19T04:22:39.462Z,7.30
2018-10-19T04:25:08.710Z,7.20
2018-10-19T04:27:36.946Z,7.30
2018-10-19T04:30:06.541Z,7.30
2018-10-19T04:32:34.770Z,7.20
2018-10-19T04:35:03.073Z,7.10
2018-10-19T04:37:31.249Z,7.00
2018-10-19T04:39:59.436Z,7.10
2018-10-19T04:42:27.811Z,7.10
2018-10-19T04:44:56.010Z,7.10
2018-10-19T04:47:24.234Z,7.20
2018-10-19T04:49:52.453Z,7.40
2018-10-19T04:52:20.637Z,7.40
2018-10-19T04:54:48.846Z,7.40
2018-10-19T04:57:17.094Z,7.30
2018-10-19T04:59:45.278Z,7.20
2018-10-19T05:02:13.490Z,7.10
2018-10-19T05:04:41.731Z,7.10
2018-10-19T05:07:09.906Z,7.10
2018-10-19T05:09:38.200Z,7.10
2018-10-19T05:12:06.409Z,6.90
2018-10-19T05:14:34.581Z,7.00
2018-10-19T05:17:02.845Z,6.90
2018-10-19T05:19:31.025Z,6.90
2018-10-19T05:21:59.206Z,6.80
2018-10-19T05:24:27.479Z,6.70
2018-10-19T05:26:55.657Z,6.60
2018-10-19T05:29:23.861Z,6.40
2018-10-19T05:31:52.110Z,6.40
2018-10-19T05:34:20.321Z,6.50
2018-10-19T05:36:48.498Z,6.60
2018-10-19T05:39:16.713Z,6.60
2018-10-19T05:41:44.941Z,6.60
2018-10-19T05:44:13.164Z,6.70
2018-10-19T05:46:41.398Z,6.90
2018-10-19T05:49:09.597Z,6.90
2018-10-19T05:51:37.804Z,6.90
2018-10-19T05:54:06.082Z,6.90
2018-10-19T05:56:34.292Z,7.00
2018-10-19T05:59:02.545Z,7.00
2018-10-19T06:01:30.733Z,7.00
2018-10-19T06:03:58.962Z,7.10
2018-10-19T06:06:27.248Z,7.10
2018-10-19T06:08:55.737Z,7.10
2018-10-19T06:11:23.958Z,7.10
2018-10-19T06:13:52.172Z,7.10
2018-10-19T06:16:20.416Z,7.20
2018-10-19T06:18:48.604Z,7.20
2018-10-19T06:21:16.891Z,7.30
2018-10-19T06:23:45.057Z,7.40
2018-10-19T06:26:13.404Z,7.40
2018-10-19T06:28:41.550Z,7.40
2018-10-19T06:31:09.783Z,7.40
2018-10-19T06:33:38.081Z,7.30
2018-10-19T06:36:06.292Z,7.40
2018-10-19T06:38:34.469Z,7.40
2018-10-19T06:41:02.754Z,7.50
2018-10-19T06:43:30.933Z,7.40
2018-10-19T06:45:59.165Z,7.30
2018-10-19T06:48:27.381Z,7.30
2018-10-19T06:50:55.568Z,7.40
2018-10-19T06:53:23.834Z,7.40
2018-10-19T06:55:52.027Z,7.20
2018-10-19T06:58:20.290Z,7.20
2018-10-19T07:00:48.461Z,7.20
2018-10-19T07:03:16.698Z,7.00
2018-10-19T07:05:45.023Z,7.10
2018-10-19T07:08:13.174Z,7.30
2018-10-19T07:10:41.510Z,7.30
2018-10-19T07:13:09.714Z,7.30
2018-10-19T07:15:38.034Z,7.40
2018-10-19T07:18:06.296Z,7.40
2018-10-19T07:20:34.489Z,7.50
2018-10-19T07:23:02.745Z,7.70
2018-10-19T07:25:30.933Z,7.90
2018-10-19T07:27:59.159Z,8.10
2018-10-19T07:30:27.418Z,8.20
2018-10-19T07:32:55.603Z,8.40
2018-10-19T07:35:23.836Z,8.40
2018-10-19T07:37:52.031Z,8.30
2018-10-19T07:40:20.288Z,8.60
2018-10-19T07:42:48.480Z,8.70
2018-10-19T07:45:16.807Z,8.70
2018-10-19T07:47:45.129Z,8.70
2018-10-19T07:50:13.354Z,8.70
2018-10-19T07:52:41.676Z,8.90
2018-10-19T07:55:11.007Z,8.90
2018-10-19T07:57:39.297Z,8.90
2018-10-19T08:00:09.082Z,9.00
2018-10-19T08:02:37.254Z,9.00
2018-10-19T08:05:06.505Z,9.20
2018-10-19T08:07:34.736Z,9.40
2018-10-19T08:10:03.044Z,9.50
2018-10-19T08:12:31.282Z,9.60
2018-10-19T08:14:59.526Z,9.70
2018-10-19T08:17:27.789Z,9.80
2018-10-19T08:19:56.037Z,9.90
2018-10-19T08:22:24.393Z,9.90
2018-10-19T08:24:53.411Z,10.00
2018-10-19T08:27:21.711Z,10.00
2018-10-19T08:29:50.054Z,10.00
2018-10-19T08:32:18.359Z,10.00
2018-10-19T08:34:46.729Z,10.10
2018-10-19T08:37:15.820Z,10.10
2018-10-19T08:39:44.090Z,10.10
2018-10-19T08:42:12.415Z,10.20
2018-10-19T08:44:40.610Z,10.30
2018-10-19T08:47:08.951Z,10.40
2018-10-19T08:49:37.105Z,10.50
2018-10-19T08:52:05.382Z,10.60
2018-10-19T08:54:34.663Z,10.50
2018-10-19T08:57:04.029Z,10.60
2018-10-19T08:59:32.888Z,10.60
2018-10-19T09:02:01.210Z,10.60
2018-10-19T09:04:29.501Z,10.70
2018-10-19T09:06:57.929Z,10.90
2018-10-19T09:09:26.164Z,11.10
2018-10-19T09:11:54.432Z,11.10
2018-10-19T09:14:33.984Z,11.10
2018-10-19T09:17:02.787Z,11.20
2018-10-19T09:19:30.962Z,11.30
2018-10-19T09:21:59.632Z,11.40
2018-10-19T09:24:27.895Z,11.40
2018-10-19T09:26:56.253Z,11.30
2018-10-19T09:29:24.620Z,11.20
2018-10-19T09:31:52.849Z,11.30
2018-10-19T09:34:21.105Z,11.40
2018-10-19T09:36:49.447Z,11.40
2018-10-19T09:39:17.702Z,11.40
2018-10-19T09:41:45.875Z,11.60
2018-10-19T09:44:14.093Z,11.90
2018-10-19T09:46:42.346Z,12.00
2018-10-19T09:49:11.884Z,12.20
2018-10-19T09:51:40.821Z,12.10
2018-10-19T09:54:10.131Z,12.10
2018-10-19T09:56:39.500Z,12.00
2018-10-19T09:59:07.844Z,12.00
2018-10-19T10:01:36.612Z,12.10
2018-10-19T10:04:05.117Z,12.30
2018-10-19T10:06:33.354Z,12.40
2018-10-19T10:09:01.617Z,12.40
2018-10-19T10:11:29.941Z,12.40
2018-10-19T10:13:58.140Z,12.50
2018-10-19T10:16:26.463Z,12.30
2018-10-19T10:18:54.691Z,12.30
2018-10-19T10:21:22.998Z,12.40
2018-10-19T10:23:51.261Z,12.40
2018-10-19T10:26:19.516Z,12.40
2018-10-19T10:28:47.733Z,12.50
2018-10-19T10:31:16.014Z,12.60
2018-10-19T10:33:44.221Z,12.80
2018-10-19T10:36:12.453Z,13.10
2018-10-19T10:38:40.672Z,13.40
2018-10-19T10:41:08.930Z,13.70
2018-10-19T10:43:37.171Z,13.90
2018-10-19T10:46:05.736Z,14.10
2018-10-19T10:48:33.905Z,14.30
2018-10-19T10:51:02.237Z,14.50
2018-10-19T10:53:30.420Z,14.70
2018-10-19T10:55:58.626Z,14.80
2018-10-19T10:58:27.227Z,15.00
2018-10-19T11:00:55.877Z,15.20
2018-10-19T11:03:24.580Z,15.30
2018-10-19T11:05:53.206Z,15.40
2018-10-19T11:08:21.913Z,15.60
2018-10-19T11:10:50.576Z,15.50
2018-10-19T11:13:19.203Z,15.60
2018-10-19T11:15:47.949Z,15.80
2018-10-19T11:18:16.570Z,15.90
2018-10-19T11:20:45.401Z,16.10
2018-10-19T11:23:14.039Z,16.20
2018-10-19T11:25:42.753Z,16.10
2018-10-19T11:28:11.021Z,16.20
2018-10-19T11:30:39.606Z,16.30
2018-10-19T11:33:08.306Z,16.40
2018-10-19T11:35:37.086Z,16.60
2018-10-19T11:38:05.602Z,16.60
2018-10-19T11:40:35.781Z,16.60
2018-10-19T11:43:05.265Z,16.50
2018-10-19T11:45:34.593Z,16.60
2018-10-19T11:48:03.932Z,16.60
2018-10-19T11:50:32.637Z,16.70
2018-10-19T11:53:01.873Z,16.80
2018-10-19T11:55:30.129Z,17.00
2018-10-19T11:57:58.369Z,17.10
2018-10-19T12:00:26.626Z,17.10
2018-10-19T12:02:54.842Z,17.10
2018-10-19T12:05:23.094Z,17.20
2018-10-19T12:07:51.320Z,17.40
2018-10-19T12:10:19.567Z,17.60
2018-10-19T12:12:47.837Z,17.60
2018-10-19T12:15:16.984Z,17.70
2018-10-19T12:17:45.578Z,17.70
2018-10-19T12:20:15.060Z,17.50
2018-10-19T12:22:43.294Z,17.40
2018-10-19T12:25:12.538Z,17.40
2018-10-19T12:27:41.141Z,17.70
2018-10-19T12:30:10.170Z,17.60
2018-10-19T12:32:38.497Z,17.50
2018-10-19T12:35:08.271Z,17.70
2018-10-19T12:37:36.550Z,17.70
2018-10-19T12:40:05.600Z,17.40
2018-10-19T12:42:33.884Z,17.10
2018-10-19T12:45:02.567Z,17.10
2018-10-19T12:47:37.126Z,17.10
2018-10-19T12:50:05.622Z,17.30
2018-10-19T12:52:33.870Z,17.40
2018-10-19T12:55:02.204Z,17.60
2018-10-19T12:57:30.405Z,17.50
2018-10-19T12:59:59.293Z,17.60
2018-10-19T13:02:27.653Z,17.50
2018-10-19T13:04:55.853Z,17.50
2018-10-19T13:07:24.377Z,17.60
2018-10-19T13:09:53.149Z,17.70
2018-10-19T13:12:21.382Z,17.70
2018-10-19T13:14:49.677Z,17.70
2018-10-19T13:17:17.862Z,17.70
2018-10-19T13:19:46.117Z,17.80
2018-10-19T13:22:14.302Z,17.80
2018-10-19T13:24:43.206Z,17.80
2018-10-19T13:27:11.492Z,17.60
2018-10-19T13:29:40.813Z,17.50
2018-10-19T13:32:09.085Z,17.40
2018-10-19T13:34:38.932Z,17.40
2018-10-19T13:37:07.207Z,17.60
2018-10-19T13:39:35.418Z,17.80
2018-10-19T13:42:03.683Z,17.90
2018-10-19T13:44:31.908Z,18.00
2018-10-19T13:47:00.940Z,18.10
2018-10-19T13:49:29.171Z,17.90
2018-10-19T13:51:57.412Z,17.80
2018-10-19T13:54:25.646Z,17.70
2018-10-19T13:56:54.455Z,17.70
2018-10-19T13:59:23.142Z,17.60
2018-10-19T14:01:52.337Z,17.60
2018-10-19T14:04:20.520Z,17.60
2018-10-19T14:06:48.758Z,17.30
2018-10-19T14:09:16.966Z,17.10
2018-10-19T14:11:45.233Z,17.10
2018-10-19T14:14:13.462Z,17.20
2018-10-19T14:16:41.645Z,17.30
2018-10-19T14:19:09.918Z,17.40
2018-10-19T14:21:38.085Z,17.40
2018-10-19T14:24:06.329Z,17.30
2018-10-19T14:26:34.660Z,17.30
2018-10-19T14:29:02.895Z,17.30
2018-10-19T14:31:31.163Z,17.30
2018-10-19T14:33:59.363Z,17.30
2018-10-19T14:36:27.703Z,17.20
2018-10-19T14:38:55.943Z,17.10
2018-10-19T14:41:24.141Z,17.00
2018-10-19T14:43:52.318Z,17.00
2018-10-19T14:46:20.533Z,17.10
2018-10-19T14:48:49.734Z,17.10
2018-10-19T14:51:17.987Z,17.10
2018-10-19T14:53:46.224Z,17.00
2018-10-19T14:56:14.450Z,16.90
2018-10-19T14:58:43.475Z,16.90
2018-10-19T15:01:11.743Z,16.80
2018-10-19T15:03:39.962Z,16.80
2018-10-19T15:06:08.529Z,16.70
2018-10-19T15:08:36.761Z,16.70
2018-10-19T15:11:05.396Z,16.60
2018-10-19T15:13:33.526Z,16.50
2018-10-19T15:16:01.728Z,16.40
2018-10-19T15:18:29.989Z,16.20
2018-10-19T15:20:58.198Z,16.10
2018-10-19T15:23:26.392Z,16.10
2018-10-19T15:25:54.665Z,15.90
2018-10-19T15:28:22.951Z,15.80
2018-10-19T15:30:51.142Z,15.80
2018-10-19T15:33:19.446Z,15.70
2018-10-19T15:35:47.636Z,15.60
2018-10-19T15:38:15.945Z,15.50
2018-10-19T15:40:44.157Z,15.40
2018-10-19T15:43:12.357Z,15.30
2018-10-19T15:45:40.578Z,15.20
2018-10-19T15:48:08.862Z,15.10
2018-10-19T15:50:37.078Z,15.00
2018-10-19T15:53:05.501Z,14.90
2018-10-19T15:55:34.169Z,14.80
2018-10-19T15:58:02.400Z,14.70
2018-10-19T16:00:30.733Z,14.70
2018-10-19T16:02:58.923Z,14.60
2018-10-19T16:05:27.150Z,14.50
2018-10-19T16:07:55.336Z,14.40
2018-10-19T16:10:23.635Z,14.30
2018-10-19T16:12:51.820Z,14.20
2018-10-19T16:15:20.010Z,14.10
2018-10-19T16:17:48.225Z,14.00
2018-10-19T16:20:16.469Z,13.90
2018-10-19T16:22:44.652Z,13.80
2018-10-19T16:25:12.879Z,13.80
2018-10-19T16:27:41.150Z,13.70
2018-10-19T16:30:10.894Z,13.60
2018-10-19T16:32:39.830Z,13.60
2018-10-19T16:35:08.690Z,13.50
2018-10-19T16:37:37.458Z,13.50
2018-10-19T16:40:06.020Z,13.40
2018-10-19T16:42:34.209Z,13.30
2018-10-19T16:45:02.480Z,13.30
2018-10-19T16:47:31.053Z,13.20
2018-10-19T16:49:59.257Z,13.20
2018-10-19T16:52:27.585Z,13.10
2018-10-19T16:54:55.686Z,13.10
2018-10-19T16:57:23.890Z,13.10
2018-10-19T16:59:52.087Z,13.00
2018-10-19T17:02:20.711Z,13.00
2018-10-19T17:04:49.136Z,12.90
2018-10-19T17:07:17.343Z,12.90
2018-10-19T17:09:45.602Z,12.80
2018-10-19T17:12:16.767Z,12.80
2018-10-19T17:14:44.926Z,12.70
2018-10-19T17:17:13.103Z,12.70
2018-10-19T17:19:41.315Z,12.60
2018-10-19T17:22:09.493Z,12.60
2018-10-19T17:24:37.718Z,12.60
2018-10-19T17:27:06.161Z,12.50
2018-10-19T17:29:34.329Z,12.50
2018-10-19T17:32:02.602Z,12.50
2018-10-19T17:34:30.809Z,12.50
2018-10-19T17:36:59.058Z,12.40
2018-10-19T17:39:27.262Z,12.40
2018-10-19T17:41:55.478Z,12.40
2018-10-19T17:44:23.762Z,12.40
2018-10-19T17:46:51.920Z,12.30
2018-10-19T17:49:20.133Z,12.30
2018-10-19T17:51:48.361Z,12.30
2018-10-19T17:54:16.680Z,12.20
2018-10-19T17:56:44.865Z,12.20
2018-10-19T17:59:13.133Z,12.10
2018-10-19T18:01:41.377Z,12.10
2018-10-19T18:04:09.585Z,12.00
2018-10-19T18:06:37.810Z,12.00
2018-10-19T18:09:10.380Z,11.90
2018-10-19T18:11:38.861Z,11.80
2018-10-19T18:14:07.228Z,11.80
2018-10-19T18:16:35.694Z,11.80
2018-10-19T18:19:03.918Z,11.70
2018-10-19T18:21:32.163Z,11.70
2018-10-19T18:24:00.345Z,11.70
2018-10-19T18:26:28.937Z,11.60
2018-10-19T18:28:57.765Z,11.60
2018-10-19T18:31:27.215Z,11.40
2018-10-19T18:33:55.720Z,11.40
2018-10-19T18:36:24.737Z,11.30
2018-10-19T18:38:53.111Z,11.40
2018-10-19T18:41:22.238Z,11.40
2018-10-19T18:43:50.773Z,11.40
2018-10-19T18:46:19.000Z,11.30
2018-10-19T18:48:47.266Z,11.30
2018-10-19T18:51:16.797Z,11.30
2018-10-19T18:53:45.505Z,11.30
2018-10-19T18:56:13.781Z,11.20
2018-10-19T18:58:41.976Z,11.20
2018-10-19T19:01:12.117Z,11.20
2018-10-19T19:03:40.344Z,11.20
2018-10-19T19:06:09.316Z,11.10
2018-10-19T19:08:37.561Z,11.10
2018-10-19T19:11:05.803Z,11.10
2018-10-19T19:13:39.413Z,11.10
2018-10-19T19:16:15.165Z,11.00
2018-10-19T19:18:43.405Z,11.00
2018-10-19T19:21:11.633Z,10.90
2018-10-19T19:23:45.785Z,10.90
2018-10-19T19:26:15.109Z,10.90
2018-10-19T19:28:44.041Z,10.80
2018-10-19T19:31:12.718Z,10.90
2018-10-19T19:33:46.481Z,10.80
2018-10-19T19:36:14.806Z,10.80
2018-10-19T19:38:43.193Z,10.70
2018-10-19T19:41:17.086Z,10.70
2018-10-19T19:43:45.209Z,10.70
2018-10-19T19:46:14.030Z,10.70
2018-10-19T19:48:47.781Z,10.70
2018-10-19T19:51:16.007Z,10.50
2018-10-19T19:53:44.206Z,10.50
2018-10-19T19:56:12.825Z,10.30
2018-10-19T19:58:41.057Z,10.30
2018-10-19T20:01:09.958Z,10.30
2018-10-19T20:03:38.481Z,10.30
2018-10-19T20:06:07.251Z,10.30
2018-10-19T20:08:35.477Z,10.20
2018-10-19T20:11:03.795Z,10.20
2018-10-19T20:13:31.925Z,10.30
2018-10-19T20:16:00.141Z,10.30
2018-10-19T20:18:28.334Z,10.20
2018-10-19T20:20:56.533Z,10.20
2018-10-19T20:23:24.735Z,10.20
2018-10-19T20:25:52.975Z,10.20
2018-10-19T20:28:21.195Z,10.20
2018-10-19T20:30:49.370Z,10.20
2018-10-19T20:33:17.596Z,10.20
2018-10-19T20:35:45.897Z,10.10
2018-10-19T20:38:14.214Z,10.10
2018-10-19T20:40:42.460Z,10.10
2018-10-19T20:43:10.690Z,10.00
2018-10-19T20:45:38.871Z,10.00
2018-10-19T20:48:07.109Z,10.00
2018-10-19T20:50:35.305Z,9.90
2018-10-19T20:53:03.593Z,9.90
2018-10-19T20:55:31.867Z,9.90
2018-10-19T20:58:00.037Z,9.80
2018-10-19T21:00:28.265Z,9.70
2018-10-19T21:02:56.453Z,9.70
2018-10-19T21:05:27.489Z,9.70
2018-10-19T21:07:55.701Z,9.70
2018-10-19T21:10:23.976Z,9.60
2018-10-19T21:12:52.145Z,9.50
2018-10-19T21:15:20.333Z,9.60
2018-10-19T21:17:48.546Z,9.50
2018-10-19T21:20:16.877Z,9.50
2018-10-19T21:22:44.993Z,9.50
2018-10-19T21:25:13.200Z,9.40
2018-10-19T21:27:41.385Z,9.40
2018-10-19T21:30:11.119Z,9.40
2018-10-19T21:32:39.330Z,9.40
2018-10-19T21:35:07.651Z,9.30
2018-10-19T21:37:35.845Z,9.30
2018-10-19T21:40:04.102Z,9.20
2018-10-19T21:42:32.389Z,9.20
2018-10-19T21:45:00.616Z,9.10
2018-10-19T21:47:29.036Z,9.10
2018-10-19T21:49:57.633Z,9.10
2018-10-19T21:52:25.853Z,9.10
2018-10-19T21:54:54.065Z,9.00
2018-10-19T21:57:22.305Z,8.90
2018-10-19T21:59:50.500Z,8.90
2018-10-19T22:02:18.730Z,8.80
2018-10-19T22:04:46.921Z,8.80
2018-10-19T22:07:15.163Z,8.90
2018-10-19T22:09:43.404Z,8.80
2018-10-19T22:12:11.601Z,8.70
2018-10-19T22:14:39.820Z,8.90
2018-10-19T22:17:08.064Z,9.00
2018-10-19T22:19:36.289Z,9.00
2018-10-19T22:22:04.561Z,9.00
2018-10-19T22:24:32.778Z,9.00
2018-10-19T22:27:00.978Z,8.90
2018-10-19T22:29:35.870Z,8.90
2018-10-19T22:32:04.098Z,8.90
2018-10-19T22:34:32.321Z,8.90
2018-10-19T22:37:00.514Z,9.00
2018-10-19T22:39:28.776Z,9.00
2018-10-19T22:41:57.017Z,9.00
2018-10-19T22:44:25.198Z,9.00
2018-10-19T22:46:53.441Z,8.90
2018-10-19T22:49:21.617Z,8.80
2018-10-19T22:51:49.848Z,8.80
2018-10-19T22:54:18.094Z,8.80
2018-10-19T22:56:46.470Z,8.70
2018-10-19T22:59:14.752Z,8.70
2018-10-19T23:01:42.941Z,8.60
2018-10-19T23:04:11.155Z,8.60
2018-10-19T23:06:39.346Z,8.50
2018-10-19T23:09:08.585Z,8.50
2018-10-19T23:11:36.774Z,8.50
2018-10-19T23:14:05.093Z,8.50
2018-10-19T23:16:33.554Z,8.50
2018-10-19T23:19:01.762Z,8.40
2018-10-19T23:21:30.068Z,8.40
2018-10-19T23:23:58.240Z,8.40
2018-10-19T23:26:26.471Z,8.40
2018-10-19T23:28:54.749Z,8.40
2018-10-19T23:31:23.078Z,8.40
2018-10-19T23:33:51.246Z,8.40
2018-10-19T23:36:19.479Z,8.40
2018-10-19T23:38:47.706Z,8.40
2018-10-19T23:41:15.974Z,8.40
2018-10-19T23:43:44.184Z,8.30
2018-10-19T23:46:12.474Z,8.30
2018-10-19T23:48:40.665Z,8.30
2018-10-19T23:51:08.896Z,8.30
2018-10-19T23:53:37.212Z,8.20
2018-10-19T23:56:05.577Z,8.20
2018-10-19T23:58:33.822Z,8.20
